Time,TemperatureF,DewpointF,PressureIn,WindDirection,WindDirectionDegrees,WindSpeedMPH,WindSpeedGustMPH,Humidity,HourlyPrecipIn,Conditions,Clouds,dailyrainin,SolarRadiationWatts/m^2,SoftwareType,DateUTC
2013-02-17 00:02:00,13.0,10.0,-100.00,NW,309,7.0,12.0,86,0.00,,,0.01,0.000000,,2013-02-17 05:02:00,
2013-02-17 00:33:00,13.0,7.0,-100.00,NW,314,7.0,12.0,76,0.00,,,0.01,0.000000,,2013-02-17 05:33:00,
2013-02-17 00:42:00,13.0,7.0,-100.00,NW,314,7.0,12.0,76,0.00,,,0.01,0.000000,,2013-02-17 05:42:00,
2013-02-17 00:52:00,13.0,7.0,-100.00,NW,314,7.0,12.0,76,0.00,,,0.01,0.000000,,2013-02-17 05:52:00,
2013-02-17 01:02:00,13.0,7.0,-100.00,NW,314,7.0,12.0,76,0.00,,,0.01,0.000000,,2013-02-17 06:02:00,
2013-02-17 01:32:00,12.0,5.0,-100.00,NW,310,8.0,15.0,72,0.00,,,0.01,0.000000,,2013-02-17 06:32:00,
2013-02-17 01:42:00,12.0,5.0,-100.00,NW,310,8.0,15.0,72,0.00,,,0.01,0.000000,,2013-02-17 06:42:00,
2013-02-17 01:52:00,12.0,5.0,-100.00,NW,310,8.0,15.0,72,0.00,,,0.01,0.000000,,2013-02-17 06:52:00,
2013-02-17 02:01:00,12.0,5.0,-100.00,NW,310,8.0,15.0,72,0.00,,,0.01,0.000000,,2013-02-17 07:01:00,
2013-02-17 02:32:00,11.0,3.0,-100.00,NW,312,7.0,21.0,70,0.00,,,0.01,0.000000,,2013-02-17 07:32:00,
2013-02-17 02:42:00,11.0,3.0,-100.00,NW,312,7.0,21.0,70,0.00,,,0.01,0.000000,,2013-02-17 07:42:00,
2013-02-17 02:52:00,11.0,3.0,-100.00,NW,312,7.0,21.0,70,0.00,,,0.01,0.000000,,2013-02-17 07:52:00,
2013-02-17 03:01:00,11.0,3.0,-100.00,NW,312,7.0,21.0,70,0.00,,,0.01,0.000000,,2013-02-17 08:01:00,
2013-02-17 03:32:00,11.0,3.0,-100.00,NW,312,8.0,16.0,69,0.00,,,0.01,0.000000,,2013-02-17 08:32:00,
2013-02-17 03:42:00,11.0,3.0,-100.00,NW,312,8.0,16.0,69,0.00,,,0.01,0.000000,,2013-02-17 08:42:00,
2013-02-17 03:52:00,11.0,3.0,-100.00,NW,312,8.0,16.0,69,0.00,,,0.01,0.000000,,2013-02-17 08:52:00,
2013-02-17 04:02:00,11.0,3.0,-100.00,NW,312,8.0,16.0,69,0.00,,,0.01,0.000000,,2013-02-17 09:02:00,
2013-02-17 04:32:00,10.0,2.0,-100.00,NW,311,8.0,15.0,70,0.00,,,-99.99,0.000000,,2013-02-17 09:32:00,
2013-02-17 04:42:00,10.0,2.0,-100.00,NW,311,8.0,15.0,70,0.00,,,-99.99,0.000000,,2013-02-17 09:42:00,
2013-02-17 04:52:00,10.0,2.0,-100.00,NW,311,8.0,15.0,70,0.00,,,-99.99,0.000000,,2013-02-17 09:52:00,
2013-02-17 05:01:00,10.0,2.0,-100.00,NW,311,8.0,15.0,70,0.00,,,-99.99,0.000000,,2013-02-17 10:01:00,
2013-02-17 05:32:00,10.0,3.0,-100.00,NW,310,8.0,14.0,71,0.00,,,-99.99,0.000000,,2013-02-17 10:32:00,
2013-02-17 05:42:00,10.0,3.0,-100.00,NW,310,8.0,14.0,71,0.00,,,-99.99,0.000000,,2013-02-17 10:42:00,
2013-02-17 05:52:00,10.0,3.0,-100.00,NW,310,8.0,14.0,71,0.00,,,-99.99,0.000000,,2013-02-17 10:52:00,
2013-02-17 06:01:00,10.0,3.0,-100.00,NW,310,8.0,14.0,71,0.00,,,-99.99,0.000000,,2013-02-17 11:01:00,
2013-02-17 06:32:00,10.0,3.0,-100.00,NW,316,8.0,16.0,71,0.00,,,0.01,0.000000,,2013-02-17 11:32:00,
2013-02-17 06:42:00,10.0,3.0,-100.00,NW,316,8.0,16.0,71,0.00,,,0.01,0.000000,,2013-02-17 11:42:00,
2013-02-17 06:53:00,10.0,3.0,-100.00,NW,316,8.0,16.0,71,0.00,,,0.01,0.000000,,2013-02-17 11:53:00,
2013-02-17 07:03:00,10.0,3.0,-100.00,NW,316,8.0,16.0,71,0.00,,,0.01,0.000000,,2013-02-17 12:03:00,
2013-02-17 07:32:00,10.0,3.0,-100.00,NW,314,8.0,13.0,71,0.00,,,0.01,0.000000,,2013-02-17 12:32:00,
2013-02-17 07:42:00,10.0,3.0,-100.00,NW,314,8.0,13.0,71,0.00,,,0.01,0.000000,,2013-02-17 12:42:00,
2013-02-17 07:52:00,10.0,3.0,-100.00,NW,314,8.0,13.0,71,0.00,,,0.01,0.000000,,2013-02-17 12:52:00,
2013-02-17 08:02:00,10.0,3.0,-100.00,NW,314,8.0,13.0,71,0.00,,,0.01,0.000000,,2013-02-17 13:02:00,
2013-02-17 09:32:00,15.0,6.0,-100.00,NW,316,9.0,14.0,67,-99.99,,,0.01,206.000000,,2013-02-17 14:32:00,
2013-02-17 09:42:00,15.0,6.0,-100.00,NW,316,9.0,14.0,67,-99.99,,,0.01,206.000000,,2013-02-17 14:42:00,
2013-02-17 09:53:00,15.0,6.0,-100.00,NW,316,9.0,14.0,67,-99.99,,,0.01,206.000000,,2013-02-17 14:53:00,
2013-02-17 10:02:00,15.0,6.0,-100.00,NW,316,9.0,14.0,67,-99.99,,,0.01,206.000000,,2013-02-17 15:02:00,
2013-02-17 10:32:00,18.0,7.0,-100.00,NW,317,8.0,16.0,62,0.00,,,0.01,418.000000,,2013-02-17 15:32:00,
2013-02-17 10:42:00,18.0,7.0,-100.00,NW,317,8.0,16.0,62,0.00,,,0.01,418.000000,,2013-02-17 15:42:00,
2013-02-17 10:52:00,18.0,7.0,-100.00,NW,317,8.0,16.0,62,0.00,,,0.01,418.000000,,2013-02-17 15:52:00,
2013-02-17 11:01:00,18.0,7.0,-100.00,NW,317,8.0,16.0,62,0.00,,,0.01,418.000000,,2013-02-17 16:01:00,
2013-02-17 11:32:00,21.0,8.0,-100.00,NW,315,7.0,17.0,57,0.00,,,0.01,591.000000,,2013-02-17 16:32:00,
2013-02-17 11:42:00,21.0,8.0,-100.00,NW,315,7.0,17.0,57,0.00,,,0.01,591.000000,,2013-02-17 16:42:00,
2013-02-17 11:52:00,21.0,8.0,-100.00,NW,315,7.0,17.0,57,0.00,,,0.01,591.000000,,2013-02-17 16:52:00,
2013-02-17 12:02:00,21.0,8.0,-100.00,NW,315,7.0,17.0,57,0.00,,,0.01,591.000000,,2013-02-17 17:02:00,
2013-02-17 12:32:00,23.0,8.0,-100.00,NW,314,8.0,15.0,51,0.00,,,0.01,725.000000,,2013-02-17 17:32:00,
2013-02-17 12:42:00,23.0,8.0,-100.00,NW,314,8.0,15.0,51,0.00,,,0.01,725.000000,,2013-02-17 17:42:00,
2013-02-17 12:52:00,23.0,8.0,-100.00,NW,314,8.0,15.0,51,0.00,,,0.01,725.000000,,2013-02-17 17:52:00,
2013-02-17 13:02:00,23.0,8.0,-100.00,NW,314,8.0,15.0,51,0.00,,,0.01,725.000000,,2013-02-17 18:02:00,
2013-02-17 13:33:00,26.0,6.0,-100.00,NW,314,8.0,18.0,42,0.00,,,0.01,788.000000,,2013-02-17 18:33:00,
2013-02-17 13:42:00,26.0,6.0,-100.00,NW,314,8.0,18.0,42,0.00,,,0.01,788.000000,,2013-02-17 18:42:00,
2013-02-17 13:52:00,26.0,6.0,-100.00,NW,314,8.0,18.0,42,0.00,,,0.01,788.000000,,2013-02-17 18:52:00,
2013-02-17 14:02:00,26.0,6.0,-100.00,NW,314,8.0,18.0,42,0.00,,,0.01,788.000000,,2013-02-17 19:02:00,
2013-02-17 14:32:00,28.0,5.0,-100.00,NW,313,8.0,19.0,37,0.00,,,0.01,784.000000,,2013-02-17 19:32:00,
2013-02-17 14:42:00,28.0,5.0,-100.00,NW,313,8.0,19.0,37,0.00,,,0.01,784.000000,,2013-02-17 19:42:00,
2013-02-17 14:52:00,28.0,5.0,-100.00,NW,313,8.0,19.0,37,0.00,,,0.01,784.000000,,2013-02-17 19:52:00,
2013-02-17 15:02:00,28.0,5.0,-100.00,NW,313,8.0,19.0,37,0.00,,,0.01,784.000000,,2013-02-17 20:02:00,
2013-02-17 15:32:00,28.0,5.0,-100.00,NW,313,8.0,25.0,36,0.00,,,0.01,708.000000,,2013-02-17 20:32:00,
2013-02-17 15:43:00,28.0,5.0,-100.00,NW,313,8.0,25.0,36,0.00,,,0.01,708.000000,,2013-02-17 20:43:00,
2013-02-17 15:52:00,28.0,5.0,-100.00,NW,313,8.0,25.0,36,0.00,,,0.01,708.000000,,2013-02-17 20:52:00,
2013-02-17 16:02:00,28.0,5.0,-100.00,NW,313,8.0,25.0,36,0.00,,,0.01,708.000000,,2013-02-17 21:02:00,
2013-02-17 16:32:00,28.0,4.0,-100.00,NW,307,7.0,15.0,35,0.00,,,0.01,570.000000,,2013-02-17 21:32:00,
2013-02-17 16:42:00,28.0,4.0,-100.00,NW,307,7.0,15.0,35,0.00,,,0.01,570.000000,,2013-02-17 21:42:00,
2013-02-17 16:53:00,28.0,4.0,-100.00,NW,307,7.0,15.0,35,0.00,,,0.01,570.000000,,2013-02-17 21:53:00,
2013-02-17 17:01:00,28.0,4.0,-100.00,NW,307,7.0,15.0,35,0.00,,,0.01,570.000000,,2013-02-17 22:01:00,
2013-02-17 17:32:00,26.0,3.0,-100.00,NW,309,7.0,14.0,36,0.00,,,0.01,263.000000,,2013-02-17 22:32:00,
2013-02-17 17:42:00,26.0,3.0,-100.00,NW,309,7.0,14.0,36,0.00,,,0.01,263.000000,,2013-02-17 22:42:00,
2013-02-17 17:52:00,26.0,3.0,-100.00,NW,309,7.0,14.0,36,0.00,,,0.01,263.000000,,2013-02-17 22:52:00,
2013-02-17 18:02:00,26.0,3.0,-100.00,NW,309,7.0,14.0,36,0.00,,,0.01,263.000000,,2013-02-17 23:02:00,
2013-02-17 18:32:00,23.0,4.0,-100.00,WNW,303,5.0,13.0,44,0.00,,,0.01,92.000000,,2013-02-17 23:32:00,
2013-02-17 18:42:00,23.0,4.0,-100.00,WNW,303,5.0,13.0,44,0.00,,,0.01,92.000000,,2013-02-17 23:42:00,
2013-02-17 18:52:00,23.0,4.0,-100.00,WNW,303,5.0,13.0,44,0.00,,,0.01,92.000000,,2013-02-17 23:52:00,
2013-02-17 19:02:00,23.0,4.0,-100.00,WNW,303,5.0,13.0,44,0.00,,,0.01,92.000000,,2013-02-18 00:02:00,
2013-02-17 19:32:00,21.0,6.0,-100.00,NW,311,5.0,11.0,52,0.00,,,0.01,2.000000,,2013-02-18 00:32:00,
2013-02-17 19:42:00,21.0,6.0,-100.00,NW,311,5.0,11.0,52,0.00,,,0.01,2.000000,,2013-02-18 00:42:00,
2013-02-17 19:52:00,21.0,6.0,-100.00,NW,311,5.0,11.0,52,0.00,,,0.01,2.000000,,2013-02-18 00:52:00,
2013-02-17 20:01:00,21.0,6.0,-100.00,NW,311,5.0,11.0,52,0.00,,,0.01,2.000000,,2013-02-18 01:01:00,
2013-02-17 21:32:00,19.0,7.0,-100.00,WNW,293,3.0,7.0,59,-99.99,,,0.01,0.000000,,2013-02-18 02:32:00,
2013-02-17 21:42:00,19.0,7.0,-100.00,WNW,293,3.0,7.0,59,-99.99,,,0.01,0.000000,,2013-02-18 02:42:00,
2013-02-17 21:52:00,19.0,7.0,-100.00,WNW,293,3.0,7.0,59,-99.99,,,0.01,0.000000,,2013-02-18 02:52:00,
2013-02-17 22:02:00,19.0,7.0,-100.00,WNW,293,3.0,7.0,59,-99.99,,,0.01,0.000000,,2013-02-18 03:02:00,
2013-02-17 22:32:00,19.0,8.0,-100.00,WNW,298,2.0,5.0,61,0.00,,,0.00,0.000000,,2013-02-18 03:32:00,
2013-02-17 22:42:00,19.0,8.0,-100.00,WNW,298,2.0,5.0,61,0.00,,,0.00,0.000000,,2013-02-18 03:42:00,
2013-02-17 22:52:00,19.0,8.0,-100.00,WNW,298,2.0,5.0,61,0.00,,,0.00,0.000000,,2013-02-18 03:52:00,
2013-02-17 23:01:00,19.0,8.0,-100.00,WNW,298,2.0,5.0,61,0.00,,,0.00,0.000000,,2013-02-18 04:01:00,
2013-02-17 23:32:00,18.0,7.0,-100.00,NW,315,3.0,8.0,62,0.00,,,0.00,0.000000,,2013-02-18 04:32:00,
2013-02-17 23:42:00,18.0,7.0,-100.00,NW,315,3.0,8.0,62,0.00,,,0.00,0.000000,,2013-02-18 04:42:00,
2013-02-17 23:52:00,18.0,7.0,-100.00,NW,315,3.0,8.0,62,0.00,,,0.00,0.000000,,2013-02-18 04:52:00,